createdAt,value
2018-06-27T00:00:06.407Z,16.75
2018-06-27T00:00:32.556Z,16.72
2018-06-27T00:00:58.699Z,16.57
2018-06-27T00:01:24.834Z,16.56
2018-06-27T00:01:50.969Z,16.64
2018-06-27T00:02:17.135Z,16.6
2018-06-27T00:02:43.276Z,16.58
2018-06-27T00:03:09.415Z,16.51
2018-06-27T00:03:35.558Z,16.57
2018-06-27T00:04:01.690Z,16.56
2018-06-27T00:04:27.826Z,16.57
2018-06-27T00:04:53.970Z,16.58
2018-06-27T00:05:20.102Z,16.6
2018-06-27T00:05:46.243Z,16.57
2018-06-27T00:06:12.403Z,16.56
2018-06-27T00:06:38.548Z,16.57
2018-06-27T00:07:04.716Z,16.5
2018-06-27T00:07:30.852Z,16.54
2018-06-27T00:07:57.014Z,16.47
2018-06-27T00:08:23.152Z,16.51
2018-06-27T00:08:49.334Z,16.49
2018-06-27T00:09:15.520Z,16.51
2018-06-27T00:09:41.589Z,16.51
2018-06-27T00:10:07.750Z,16.47
2018-06-27T00:10:33.886Z,16.51
2018-06-27T00:11:00.038Z,16.53
2018-06-27T00:11:26.215Z,16.51
2018-06-27T00:11:52.354Z,16.47
2018-06-27T00:12:18.490Z,16.5
2018-06-27T00:12:44.632Z,16.5
2018-06-27T00:13:10.771Z,16.47
2018-06-27T00:13:36.913Z,16.5
2018-06-27T00:14:03.104Z,16.54
2018-06-27T00:14:29.237Z,16.46
2018-06-27T00:14:55.381Z,16.47
2018-06-27T00:15:21.519Z,16.42
2018-06-27T00:15:47.686Z,16.51
2018-06-27T00:16:13.846Z,16.5
2018-06-27T00:16:39.992Z,16.43
2018-06-27T00:17:06.133Z,16.41
2018-06-27T00:17:32.278Z,16.47
2018-06-27T00:17:58.414Z,16.43
2018-06-27T00:18:24.591Z,16.39
2018-06-27T00:18:50.730Z,16.46
2018-06-27T00:19:16.923Z,16.38
2018-06-27T00:19:43.006Z,16.5
2018-06-27T00:20:09.138Z,16.43
2018-06-27T00:20:35.278Z,16.38
2018-06-27T00:21:01.423Z,16.36
2018-06-27T00:21:27.584Z,16.35
2018-06-27T00:21:53.754Z,16.33
2018-06-27T00:22:19.885Z,16.38
2018-06-27T00:22:46.057Z,16.39
2018-06-27T00:23:12.217Z,16.46
2018-06-27T00:23:38.357Z,16.46
2018-06-27T00:24:04.522Z,16.38
2018-06-27T00:24:30.659Z,16.35
2018-06-27T00:24:56.842Z,16.36
2018-06-27T00:25:22.985Z,16.38
2018-06-27T00:25:49.123Z,16.38
2018-06-27T00:26:15.265Z,16.36
2018-06-27T00:26:41.432Z,16.33
2018-06-27T00:27:07.589Z,16.36
2018-06-27T00:27:33.730Z,16.35
2018-06-27T00:27:59.867Z,16.33
2018-06-27T00:28:26.040Z,16.39
2018-06-27T00:28:52.180Z,16.33
2018-06-27T00:29:18.327Z,16.31
2018-06-27T00:29:44.449Z,16.32
2018-06-27T00:30:10.618Z,16.38
2018-06-27T00:30:36.750Z,16.36
2018-06-27T00:31:02.893Z,16.26
2018-06-27T00:31:29.034Z,16.32
2018-06-27T00:31:55.168Z,16.33
2018-06-27T00:32:21.327Z,16.36
2018-06-27T00:32:47.471Z,16.39
2018-06-27T00:33:13.639Z,16.41
2018-06-27T00:33:39.772Z,16.32
2018-06-27T00:34:05.913Z,16.35
2018-06-27T00:34:32.053Z,16.35
2018-06-27T00:34:58.192Z,16.26
2018-06-27T00:35:24.333Z,16.29
2018-06-27T00:35:50.493Z,16.29
2018-06-27T00:36:16.681Z,16.26
2018-06-27T00:36:42.823Z,16.33
2018-06-27T00:37:08.955Z,16.26
2018-06-27T00:37:35.095Z,16.23
2018-06-27T00:38:01.242Z,16.28
2018-06-27T00:38:27.385Z,16.26
2018-06-27T00:38:53.578Z,16.31
2018-06-27T00:39:19.714Z,16.23
2018-06-27T00:39:45.877Z,16.26
2018-06-27T00:40:15.073Z,16.29
2018-06-27T00:40:41.211Z,16.21
2018-06-27T00:41:07.346Z,16.28
2018-06-27T00:41:33.579Z,16.24
2018-06-27T00:41:59.680Z,16.16
2018-06-27T00:42:25.814Z,16.17
2018-06-27T00:42:51.994Z,16.21
2018-06-27T00:43:18.157Z,16.16
2018-06-27T00:43:44.345Z,16.16
2018-06-27T00:44:10.505Z,16.17
2018-06-27T00:44:36.698Z,16.21
2018-06-27T00:45:02.844Z,16.17
2018-06-27T00:45:29.022Z,16.21
2018-06-27T00:45:55.156Z,16.16
2018-06-27T00:46:21.296Z,16.05
2018-06-27T00:46:47.456Z,16.12
2018-06-27T00:47:13.592Z,16.12
2018-06-27T00:47:39.731Z,16.08
2018-06-27T00:48:05.869Z,16.04
2018-06-27T00:48:32.007Z,16.09
2018-06-27T00:48:58.146Z,16.12
2018-06-27T00:49:24.288Z,16.09
2018-06-27T00:49:50.436Z,16.08
2018-06-27T00:50:16.592Z,16.02
2018-06-27T00:50:42.739Z,16.12
2018-06-27T00:51:08.879Z,16.08
2018-06-27T00:51:35.048Z,16.08
2018-06-27T00:52:01.208Z,16.05
2018-06-27T00:52:27.350Z,16.08
2018-06-27T00:52:53.487Z,16.1
2018-06-27T00:53:19.647Z,15.97
2018-06-27T00:53:45.789Z,16.12
2018-06-27T00:54:11.928Z,16.04
2018-06-27T00:54:38.095Z,16.09
2018-06-27T00:55:04.237Z,15.98
2018-06-27T00:55:30.398Z,16.02
2018-06-27T00:55:56.543Z,16.04
2018-06-27T00:56:22.689Z,15.95
2018-06-27T00:56:48.823Z,15.98
2018-06-27T00:57:14.958Z,16.01
2018-06-27T00:57:41.121Z,15.98
2018-06-27T00:58:07.263Z,16.08
2018-06-27T00:58:33.417Z,16.08
2018-06-27T00:58:59.565Z,15.98
2018-06-27T00:59:25.699Z,16.05
2018-06-27T00:59:51.867Z,16.04
2018-06-27T01:00:18.032Z,16.08
2018-06-27T01:00:44.174Z,16
2018-06-27T01:01:10.305Z,16.01
2018-06-27T01:01:36.455Z,16.01
2018-06-27T01:02:02.639Z,16
2018-06-27T01:02:28.801Z,16
2018-06-27T01:02:54.939Z,16.05
2018-06-27T01:03:21.069Z,16.09
2018-06-27T01:03:47.227Z,15.97
2018-06-27T01:04:13.366Z,16.1
2018-06-27T01:04:39.527Z,16.01
2018-06-27T01:05:05.665Z,16.01
2018-06-27T01:05:31.811Z,15.97
2018-06-27T01:05:57.974Z,16.04
2018-06-27T01:06:24.102Z,16
2018-06-27T01:06:50.264Z,15.97
2018-06-27T01:07:16.405Z,15.94
2018-06-27T01:07:42.539Z,15.98
2018-06-27T01:08:08.683Z,16
2018-06-27T01:08:34.838Z,15.98
2018-06-27T01:09:01.001Z,15.95
2018-06-27T01:09:27.141Z,15.94
2018-06-27T01:09:53.298Z,16
2018-06-27T01:10:19.427Z,16.01
2018-06-27T01:10:45.604Z,16
2018-06-27T01:11:11.744Z,16.01
2018-06-27T01:11:37.886Z,15.98
2018-06-27T01:12:04.019Z,15.97
2018-06-27T01:12:30.165Z,15.97
2018-06-27T01:12:56.296Z,16
2018-06-27T01:13:22.464Z,15.98
2018-06-27T01:13:48.600Z,15.97
2018-06-27T01:14:14.757Z,15.86
2018-06-27T01:14:40.898Z,15.82
2018-06-27T01:15:07.092Z,15.88
2018-06-27T01:15:33.227Z,15.94
2018-06-27T01:15:59.357Z,15.95
2018-06-27T01:16:25.499Z,15.84
2018-06-27T01:16:51.643Z,15.84
2018-06-27T01:17:17.780Z,15.9
2018-06-27T01:17:43.913Z,15.91
2018-06-27T01:18:10.054Z,15.9
2018-06-27T01:18:36.191Z,15.88
2018-06-27T01:19:02.329Z,15.91
2018-06-27T01:19:28.499Z,15.88
2018-06-27T01:19:54.638Z,15.88
2018-06-27T01:20:20.771Z,15.88
2018-06-27T01:20:46.911Z,15.86
2018-06-27T01:21:13.053Z,15.83
2018-06-27T01:21:39.189Z,15.82
2018-06-27T01:22:05.349Z,15.79
2018-06-27T01:22:31.497Z,15.82
2018-06-27T01:22:57.630Z,15.84
2018-06-27T01:23:23.769Z,15.9
2018-06-27T01:23:49.935Z,15.88
2018-06-27T01:24:16.070Z,15.76
2018-06-27T01:24:42.207Z,15.82
2018-06-27T01:25:08.340Z,15.82
2018-06-27T01:25:34.484Z,15.84
2018-06-27T01:26:00.627Z,15.84
2018-06-27T01:26:26.768Z,15.82
2018-06-27T01:26:52.915Z,15.68
2018-06-27T01:27:19.058Z,15.77
2018-06-27T01:27:45.192Z,15.76
2018-06-27T01:28:11.331Z,15.72
2018-06-27T01:28:37.468Z,15.77
2018-06-27T01:29:03.613Z,15.68
2018-06-27T01:29:29.752Z,15.72
2018-06-27T01:29:55.891Z,15.68
2018-06-27T01:30:22.023Z,15.75
2018-06-27T01:30:48.167Z,15.75
2018-06-27T01:31:14.301Z,15.7
2018-06-27T01:31:40.433Z,15.77
2018-06-27T01:32:06.576Z,15.77
2018-06-27T01:32:32.720Z,15.75
2018-06-27T01:32:58.857Z,15.77
2018-06-27T01:33:25.016Z,15.73
2018-06-27T01:33:51.160Z,15.75
2018-06-27T01:34:17.324Z,15.7
2018-06-27T01:34:43.484Z,15.72
2018-06-27T01:35:09.625Z,15.72
2018-06-27T01:35:35.761Z,15.7
2018-06-27T01:36:01.899Z,15.68
2018-06-27T01:36:28.036Z,15.73
2018-06-27T01:36:54.181Z,15.67
2018-06-27T01:37:20.318Z,15.67
2018-06-27T01:37:46.459Z,15.72
2018-06-27T01:38:12.593Z,15.65
2018-06-27T01:38:38.750Z,15.68
2018-06-27T01:39:04.890Z,15.68
2018-06-27T01:39:31.037Z,15.72
2018-06-27T01:39:57.170Z,15.65
2018-06-27T01:40:23.308Z,15.67
2018-06-27T01:40:49.445Z,15.67
2018-06-27T01:41:15.599Z,15.65
2018-06-27T01:41:41.728Z,15.65
2018-06-27T01:42:07.860Z,15.68
2018-06-27T01:42:33.998Z,15.65
2018-06-27T01:43:00.134Z,15.64
2018-06-27T01:43:26.282Z,15.61
2018-06-27T01:43:52.410Z,15.57
2018-06-27T01:44:18.551Z,15.59
2018-06-27T01:44:44.690Z,15.57
2018-06-27T01:45:10.831Z,15.59
2018-06-27T01:45:36.973Z,15.55
2018-06-27T01:46:03.160Z,15.61
2018-06-27T01:46:29.308Z,15.61
2018-06-27T01:46:55.445Z,15.57
2018-06-27T01:47:21.611Z,15.54
2018-06-27T01:47:47.739Z,15.57
2018-06-27T01:48:13.901Z,15.57
2018-06-27T01:48:40.040Z,15.57
2018-06-27T01:49:06.181Z,15.52
2018-06-27T01:49:32.319Z,15.52
2018-06-27T01:49:58.509Z,15.47
2018-06-27T01:50:24.638Z,15.57
2018-06-27T01:50:50.796Z,15.59
2018-06-27T01:51:16.936Z,15.54
2018-06-27T01:51:43.093Z,15.55
2018-06-27T01:52:09.254Z,15.55
2018-06-27T01:52:35.388Z,15.59
2018-06-27T01:53:01.527Z,15.58
2018-06-27T01:53:27.666Z,15.65
2018-06-27T01:53:53.805Z,15.57
2018-06-27T01:54:19.938Z,15.65
2018-06-27T01:54:46.084Z,15.62
2018-06-27T01:55:12.220Z,15.52
2018-06-27T01:55:38.360Z,15.58
2018-06-27T01:56:04.498Z,15.54
2018-06-27T01:56:30.637Z,15.49
2018-06-27T01:56:56.781Z,15.52
2018-06-27T01:57:22.915Z,15.55
2018-06-27T01:57:49.055Z,15.59
2018-06-27T01:58:15.186Z,15.51
2018-06-27T01:58:41.324Z,15.59
2018-06-27T01:59:07.464Z,15.55
2018-06-27T01:59:33.632Z,15.57
2018-06-27T01:59:59.771Z,15.49
2018-06-27T02:00:25.916Z,15.52
2018-06-27T02:00:52.043Z,15.57
2018-06-27T02:01:18.178Z,15.52
2018-06-27T02:01:44.324Z,15.52
2018-06-27T02:02:10.480Z,15.54
2018-06-27T02:02:36.620Z,15.57
2018-06-27T02:03:02.752Z,15.51
2018-06-27T02:03:28.892Z,15.49
2018-06-27T02:03:55.052Z,15.46
2018-06-27T02:04:21.196Z,15.55
2018-06-27T02:04:47.357Z,15.49
2018-06-27T02:05:13.498Z,15.47
2018-06-27T02:05:39.636Z,15.47
2018-06-27T02:06:05.774Z,15.52
2018-06-27T02:06:31.909Z,15.52
2018-06-27T02:06:58.051Z,15.46
2018-06-27T02:07:24.190Z,15.49
2018-06-27T02:07:50.378Z,15.54
2018-06-27T02:08:16.513Z,15.51
2018-06-27T02:08:42.650Z,15.51
2018-06-27T02:09:08.790Z,15.51
2018-06-27T02:09:34.926Z,15.49
2018-06-27T02:10:01.057Z,15.51
2018-06-27T02:10:27.194Z,15.54
2018-06-27T02:10:53.331Z,15.55
2018-06-27T02:11:19.471Z,15.54
2018-06-27T02:11:45.614Z,15.37
2018-06-27T02:12:11.743Z,15.51
2018-06-27T02:12:37.885Z,15.44
2018-06-27T02:13:04.050Z,15.46
2018-06-27T02:13:30.193Z,15.44
2018-06-27T02:13:56.335Z,15.43
2018-06-27T02:14:22.476Z,15.43
2018-06-27T02:14:48.621Z,15.42
2018-06-27T02:15:14.763Z,15.43
2018-06-27T02:15:40.906Z,15.4
2018-06-27T02:16:07.093Z,15.44
2018-06-27T02:16:33.223Z,15.46
2018-06-27T02:16:59.356Z,15.46
2018-06-27T02:17:25.497Z,15.43
2018-06-27T02:17:51.633Z,15.43
2018-06-27T02:18:17.772Z,15.44
2018-06-27T02:18:43.945Z,15.46
2018-06-27T02:19:10.086Z,15.33
2018-06-27T02:19:36.225Z,15.43
2018-06-27T02:20:02.355Z,15.42
2018-06-27T02:20:28.508Z,15.42
2018-06-27T02:20:54.648Z,15.35
2018-06-27T02:21:20.790Z,15.46
2018-06-27T02:21:46.925Z,15.36
2018-06-27T02:22:13.072Z,15.37
2018-06-27T02:22:39.204Z,15.42
2018-06-27T02:23:05.343Z,15.4
2018-06-27T02:23:31.482Z,15.36
2018-06-27T02:23:57.636Z,15.44
2018-06-27T02:24:23.780Z,15.39
2018-06-27T02:24:49.919Z,15.43
2018-06-27T02:25:16.098Z,15.39
2018-06-27T02:25:42.226Z,15.39
2018-06-27T02:26:08.361Z,15.44
2018-06-27T02:26:34.504Z,15.47
2018-06-27T02:27:00.667Z,15.47
2018-06-27T02:27:26.826Z,15.39
2018-06-27T02:27:52.978Z,15.36
2018-06-27T02:28:19.113Z,15.42
2018-06-27T02:28:45.258Z,15.43
2018-06-27T02:29:11.424Z,15.42
2018-06-27T02:29:37.567Z,15.44
2018-06-27T02:30:03.705Z,15.37
2018-06-27T02:30:29.865Z,15.44
2018-06-27T02:30:56.051Z,15.37
2018-06-27T02:31:22.218Z,15.4
2018-06-27T02:31:48.388Z,15.36
2018-06-27T02:32:14.519Z,15.4
2018-06-27T02:32:40.682Z,15.43
2018-06-27T02:33:06.827Z,15.33
2018-06-27T02:33:33.008Z,15.4
2018-06-27T02:33:59.147Z,15.29
2018-06-27T02:34:25.362Z,15.43
2018-06-27T02:34:51.524Z,15.39
2018-06-27T02:35:17.666Z,15.35
2018-06-27T02:35:43.820Z,15.37
2018-06-27T02:36:09.981Z,15.27
2018-06-27T02:36:36.174Z,15.24
2018-06-27T02:37:02.301Z,15.29
2018-06-27T02:37:28.463Z,15.27
2018-06-27T02:37:54.606Z,15.29
2018-06-27T02:38:20.752Z,15.33
2018-06-27T02:38:46.886Z,15.35
2018-06-27T02:39:13.019Z,15.21
2018-06-27T02:39:39.174Z,15.27
2018-06-27T02:40:05.382Z,15.27
2018-06-27T02:40:31.517Z,15.27
2018-06-27T02:40:57.704Z,15.29
2018-06-27T02:41:23.840Z,15.35
2018-06-27T02:41:49.975Z,15.35
2018-06-27T02:42:16.109Z,15.28
2018-06-27T02:42:42.319Z,15.28
2018-06-27T02:43:08.462Z,15.27
2018-06-27T02:43:34.639Z,15.24
2018-06-27T02:44:00.780Z,15.22
2018-06-27T02:44:26.952Z,15.24
2018-06-27T02:44:53.092Z,15.22
2018-06-27T02:45:19.229Z,15.27
2018-06-27T02:45:45.394Z,15.28
2018-06-27T02:46:11.530Z,15.31
2018-06-27T02:46:37.747Z,15.28
2018-06-27T02:47:03.872Z,15.29
2018-06-27T02:47:30.009Z,15.31
2018-06-27T02:47:56.188Z,15.22
2018-06-27T02:48:22.329Z,15.21
2018-06-27T02:48:48.492Z,15.27
2018-06-27T02:49:14.660Z,15.28
2018-06-27T02:49:40.810Z,15.27
2018-06-27T02:50:06.933Z,15.29
2018-06-27T02:50:33.071Z,15.21
2018-06-27T02:50:59.238Z,15.11
2018-06-27T02:51:25.394Z,15.11
2018-06-27T02:51:51.575Z,15.14
2018-06-27T02:52:17.739Z,15.17
2018-06-27T02:52:43.927Z,15.14
2018-06-27T02:53:10.089Z,15.14
2018-06-27T02:53:36.231Z,15.19
2018-06-27T02:54:02.371Z,15.15
2018-06-27T02:54:28.538Z,15.17
2018-06-27T02:54:54.673Z,15.21
2018-06-27T02:55:20.824Z,15.15
2018-06-27T02:55:46.952Z,15.1
2018-06-27T02:56:13.094Z,15.11
2018-06-27T02:56:39.239Z,15.06
2018-06-27T02:57:05.373Z,15.1
2018-06-27T02:57:31.504Z,15.04
2018-06-27T02:57:57.664Z,15.04
2018-06-27T02:58:23.801Z,15.06
2018-06-27T02:58:49.944Z,15.1
2018-06-27T02:59:16.080Z,15.14
2018-06-27T02:59:42.235Z,15.21
2018-06-27T03:00:08.400Z,15.11
2018-06-27T03:00:34.566Z,15.07
2018-06-27T03:01:00.746Z,15.11
2018-06-27T03:01:26.908Z,15.11
2018-06-27T03:01:53.118Z,15.07
2018-06-27T03:02:19.339Z,15.06
2018-06-27T03:02:45.434Z,15.02
2018-06-27T03:03:11.624Z,15.03
2018-06-27T03:03:37.788Z,15.04
2018-06-27T03:04:03.950Z,15
2018-06-27T03:04:30.140Z,15.02
2018-06-27T03:04:56.282Z,15
2018-06-27T03:05:22.408Z,15.15
2018-06-27T03:05:48.571Z,15.06
2018-06-27T03:06:14.728Z,15.06
2018-06-27T03:06:40.867Z,14.99
2018-06-27T03:07:07.059Z,15.06
2018-06-27T03:07:33.260Z,15.06
2018-06-27T03:07:59.371Z,15.06
2018-06-27T03:08:25.530Z,15.06
2018-06-27T03:08:51.677Z,14.99
2018-06-27T03:09:17.825Z,15.06
2018-06-27T03:09:44.002Z,15.06
2018-06-27T03:10:10.158Z,15.1
2018-06-27T03:10:36.372Z,15.06
2018-06-27T03:11:02.509Z,15.07
2018-06-27T03:11:28.717Z,14.97
2018-06-27T03:11:54.895Z,15.03
2018-06-27T03:12:21.155Z,15
2018-06-27T03:12:47.319Z,15.02
2018-06-27T03:13:13.504Z,14.94
2018-06-27T03:13:39.697Z,15
2018-06-27T03:14:05.855Z,15.07
2018-06-27T03:14:32.021Z,15.06
2018-06-27T03:14:58.187Z,15
2018-06-27T03:15:24.318Z,15.07
2018-06-27T03:15:50.517Z,15.11
2018-06-27T03:16:16.682Z,15.06
2018-06-27T03:16:42.817Z,15.06
2018-06-27T03:17:09.003Z,15.06
2018-06-27T03:17:35.167Z,15.04
2018-06-27T03:18:01.310Z,15.1
2018-06-27T03:18:27.444Z,15.06
2018-06-27T03:18:53.616Z,15.07
2018-06-27T03:19:19.777Z,15.07
2018-06-27T03:19:45.917Z,15.07
2018-06-27T03:20:12.056Z,15.07
2018-06-27T03:20:38.196Z,15.07
2018-06-27T03:21:04.331Z,15.09
2018-06-27T03:21:30.474Z,15.14
2018-06-27T03:21:56.612Z,15
2018-06-27T03:22:22.793Z,15
2018-06-27T03:22:48.931Z,15
2018-06-27T03:23:15.073Z,14.94
2018-06-27T03:23:41.209Z,15.04
2018-06-27T03:24:07.369Z,15.06
2018-06-27T03:24:33.509Z,15.09
2018-06-27T03:24:59.749Z,15.06
2018-06-27T03:25:25.980Z,15.06
2018-06-27T03:25:52.233Z,15.06
2018-06-27T03:26:18.465Z,15.07
2018-06-27T03:26:44.697Z,15.07
2018-06-27T03:27:11.038Z,15.03
2018-06-27T03:27:37.225Z,15.11
2018-06-27T03:28:03.462Z,15.04
2018-06-27T03:28:29.706Z,15.07
2018-06-27T03:28:55.893Z,15.07
2018-06-27T03:29:22.123Z,15.07
2018-06-27T03:29:48.360Z,15.06
2018-06-27T03:30:14.543Z,15.06
2018-06-27T03:30:40.707Z,15.11
2018-06-27T03:31:06.927Z,15.09
2018-06-27T03:31:33.118Z,15.09
2018-06-27T03:31:59.343Z,15.06
2018-06-27T03:32:25.492Z,15.06
2018-06-27T03:32:51.625Z,15.07
2018-06-27T03:33:17.794Z,15.09
2018-06-27T03:33:43.951Z,15.06
2018-06-27T03:34:10.104Z,15
2018-06-27T03:34:36.243Z,15.09
2018-06-27T03:35:02.378Z,15.07
2018-06-27T03:35:28.514Z,15.07
2018-06-27T03:35:54.650Z,15.06
2018-06-27T03:36:20.785Z,15.04
2018-06-27T03:36:46.956Z,15.03
2018-06-27T03:37:13.103Z,14.96
2018-06-27T03:37:39.242Z,15.03
2018-06-27T03:38:05.374Z,15
2018-06-27T03:38:31.515Z,15.03
2018-06-27T03:38:57.660Z,15
2018-06-27T03:39:23.794Z,15.03
2018-06-27T03:39:49.964Z,14.99
2018-06-27T03:40:16.100Z,14.97
2018-06-27T03:40:42.246Z,15.04
2018-06-27T03:41:08.381Z,15.03
2018-06-27T03:41:34.524Z,15.02
2018-06-27T03:42:00.664Z,15.04
2018-06-27T03:42:26.852Z,15
2018-06-27T03:42:52.995Z,15.02
2018-06-27T03:43:19.134Z,14.97
2018-06-27T03:43:45.269Z,15
2018-06-27T03:44:11.410Z,15.03
2018-06-27T03:44:37.568Z,15.04
2018-06-27T03:45:03.713Z,15.06
2018-06-27T03:45:29.850Z,15.09
2018-06-27T03:45:55.986Z,15.06
2018-06-27T03:46:22.148Z,15.07
2018-06-27T03:46:48.277Z,14.97
2018-06-27T03:47:14.424Z,15
2018-06-27T03:47:40.566Z,15
2018-06-27T03:48:06.736Z,14.99
2018-06-27T03:48:32.877Z,15.06
2018-06-27T03:48:59.007Z,15.04
2018-06-27T03:49:25.161Z,15.09
2018-06-27T03:49:51.298Z,15.06
2018-06-27T03:50:17.458Z,15
2018-06-27T03:50:43.598Z,14.97
2018-06-27T03:51:09.732Z,14.94
2018-06-27T03:51:35.873Z,14.97
2018-06-27T03:52:02.015Z,14.92
2018-06-27T03:52:28.150Z,15.04
2018-06-27T03:52:54.314Z,14.97
2018-06-27T03:53:20.453Z,15.04
2018-06-27T03:53:46.597Z,15
2018-06-27T03:54:12.731Z,14.99
2018-06-27T03:54:38.868Z,15.09
2018-06-27T03:55:05.030Z,15.07
2018-06-27T03:55:31.166Z,14.99
2018-06-27T03:55:57.350Z,15.06
2018-06-27T03:56:23.512Z,14.99
2018-06-27T03:56:49.679Z,14.96
2018-06-27T03:57:15.843Z,15
2018-06-27T03:57:41.983Z,14.94
2018-06-27T03:58:08.121Z,14.94
2018-06-27T03:58:34.279Z,15.02
2018-06-27T03:59:00.497Z,14.94
2018-06-27T03:59:26.590Z,14.96
2018-06-27T03:59:52.758Z,14.97
2018-06-27T04:00:18.894Z,14.94
2018-06-27T04:00:45.032Z,14.92
2018-06-27T04:01:11.176Z,14.96
2018-06-27T04:01:37.343Z,14.99
2018-06-27T04:02:03.483Z,15.03
2018-06-27T04:02:29.625Z,14.99
2018-06-27T04:02:55.785Z,15.03
2018-06-27T04:03:21.961Z,14.97
2018-06-27T04:03:48.088Z,15.1
2018-06-27T04:04:14.226Z,15.11
2018-06-27T04:04:40.368Z,15.07
2018-06-27T04:05:06.508Z,15.07
2018-06-27T04:05:32.672Z,15.11
2018-06-27T04:05:58.838Z,15.15
2018-06-27T04:06:24.989Z,15.14
2018-06-27T04:06:51.129Z,15.18
2018-06-27T04:07:17.290Z,15.15
2018-06-27T04:07:43.429Z,15.22
2018-06-27T04:08:09.593Z,15.28
2018-06-27T04:08:35.727Z,15.24
2018-06-27T04:09:01.868Z,15.25
2018-06-27T04:09:28.028Z,15.24
2018-06-27T04:09:54.170Z,15.22
2018-06-27T04:10:20.333Z,15.29
2018-06-27T04:10:46.495Z,15.27
2018-06-27T04:11:12.629Z,15.27
2018-06-27T04:11:38.762Z,15.27
2018-06-27T04:12:04.929Z,15.24
2018-06-27T04:12:31.157Z,15.29
2018-06-27T04:12:57.344Z,15.27
2018-06-27T04:13:23.501Z,15.29
2018-06-27T04:13:49.511Z,15.37
2018-06-27T04:14:15.648Z,15.43
2018-06-27T04:14:41.794Z,15.37
2018-06-27T04:15:07.933Z,15.4
2018-06-27T04:15:34.067Z,15.33
2018-06-27T04:16:00.207Z,15.37
2018-06-27T04:16:26.371Z,15.43
2018-06-27T04:16:52.511Z,15.42
2018-06-27T04:17:18.642Z,15.4
2018-06-27T04:17:44.786Z,15.44
2018-06-27T04:18:10.953Z,15.47
2018-06-27T04:18:37.091Z,15.44
2018-06-27T04:19:03.227Z,15.4
2018-06-27T04:19:29.368Z,15.44
2018-06-27T04:19:55.495Z,15.46
2018-06-27T04:20:21.678Z,15.52
2018-06-27T04:20:47.818Z,15.52
2018-06-27T04:21:13.953Z,15.55
2018-06-27T04:21:40.099Z,15.51
2018-06-27T04:22:06.259Z,15.54
2018-06-27T04:22:32.399Z,15.44
2018-06-27T04:22:58.536Z,15.51
2018-06-27T04:23:24.677Z,15.54
2018-06-27T04:23:50.817Z,15.46
2018-06-27T04:24:16.955Z,15.58
2018-06-27T04:24:43.118Z,15.52
2018-06-27T04:25:09.267Z,15.51
2018-06-27T04:25:35.399Z,15.58
2018-06-27T04:26:01.569Z,15.55
2018-06-27T04:26:27.711Z,15.57
2018-06-27T04:26:53.858Z,15.58
2018-06-27T04:27:19.991Z,15.51
2018-06-27T04:27:46.128Z,15.54
2018-06-27T04:28:12.294Z,15.57
2018-06-27T04:28:38.423Z,15.52
2018-06-27T04:29:04.591Z,15.57
2018-06-27T04:29:30.729Z,15.52
2018-06-27T04:29:56.866Z,15.61
2018-06-27T04:30:23.010Z,15.55
2018-06-27T04:30:49.154Z,15.62
2018-06-27T04:31:15.457Z,15.67
2018-06-27T04:31:41.542Z,15.67
2018-06-27T04:32:07.848Z,15.67
2018-06-27T04:32:34.082Z,15.7
2018-06-27T04:33:00.276Z,15.75
2018-06-27T04:33:26.518Z,15.65
2018-06-27T04:33:52.684Z,15.72
2018-06-27T04:34:18.848Z,15.7
2018-06-27T04:34:44.983Z,15.68
2018-06-27T04:35:11.169Z,15.67
2018-06-27T04:35:37.301Z,15.72
2018-06-27T04:36:03.677Z,15.73
2018-06-27T04:36:30.011Z,15.73
2018-06-27T04:36:56.752Z,15.77
2018-06-27T04:37:22.916Z,15.76
2018-06-27T04:37:49.050Z,15.79
2018-06-27T04:38:15.186Z,15.75
2018-06-27T04:38:41.353Z,15.84
2018-06-27T04:39:07.537Z,15.9
2018-06-27T04:39:33.678Z,15.82
2018-06-27T04:39:59.856Z,15.79
2018-06-27T04:40:26.027Z,15.92
2018-06-27T04:40:52.161Z,15.95
2018-06-27T04:41:18.302Z,15.84
2018-06-27T04:41:44.444Z,15.98
2018-06-27T04:42:10.584Z,16.05
2018-06-27T04:42:36.748Z,15.95
2018-06-27T04:43:02.921Z,16.04
2018-06-27T04:43:29.078Z,16.17
2018-06-27T04:43:55.217Z,16.39
2018-06-27T04:44:21.379Z,16.6
2018-06-27T04:44:47.530Z,16.81
2018-06-27T04:45:13.676Z,16.99
2018-06-27T04:45:39.814Z,17.31
2018-06-27T04:46:05.945Z,17.44
2018-06-27T04:46:32.135Z,17.67
2018-06-27T04:46:58.275Z,17.76
2018-06-27T04:47:24.418Z,18.01
2018-06-27T04:47:50.558Z,18.2
2018-06-27T04:48:16.707Z,18.23
2018-06-27T04:48:42.869Z,18.34
2018-06-27T04:49:09.036Z,18.56
2018-06-27T04:49:35.197Z,18.77
2018-06-27T04:50:01.310Z,18.81
2018-06-27T04:50:27.452Z,18.96
2018-06-27T04:50:53.591Z,19.11
2018-06-27T04:51:19.735Z,19.21
2018-06-27T04:51:45.874Z,19.16
2018-06-27T04:52:12.031Z,19.29
2018-06-27T04:52:38.173Z,19.37
2018-06-27T04:53:04.311Z,19.48
2018-06-27T04:53:30.452Z,19.63
2018-06-27T04:53:56.600Z,19.67
2018-06-27T04:54:22.762Z,19.99
2018-06-27T04:54:48.917Z,20.09
2018-06-27T04:55:15.057Z,20.26
2018-06-27T04:55:41.198Z,20.41
2018-06-27T04:56:07.335Z,20.5
2018-06-27T04:56:33.472Z,20.62
2018-06-27T04:56:59.660Z,20.56
2018-06-27T04:57:25.797Z,20.74
2018-06-27T04:57:51.944Z,20.96
2018-06-27T04:58:18.107Z,21.11
2018-06-27T04:58:44.248Z,21.09
2018-06-27T04:59:10.384Z,21.17
2018-06-27T04:59:36.531Z,21.15
2018-06-27T05:00:02.670Z,21.12
2018-06-27T05:00:28.805Z,21.06
2018-06-27T05:00:54.948Z,21.11
2018-06-27T05:01:21.091Z,21.11
2018-06-27T05:01:47.285Z,21.3
2018-06-27T05:02:13.396Z,21.45
2018-06-27T05:02:39.534Z,21.46
2018-06-27T05:03:05.670Z,21.52
2018-06-27T05:03:31.807Z,21.62
2018-06-27T05:03:57.953Z,21.69
2018-06-27T05:04:24.087Z,21.82
2018-06-27T05:04:50.279Z,21.91
2018-06-27T05:05:16.443Z,21.96
2018-06-27T05:05:42.582Z,22.1
2018-06-27T05:06:08.746Z,22.15
2018-06-27T05:06:34.896Z,22.1
2018-06-27T05:07:01.038Z,22.11
2018-06-27T05:07:27.216Z,22.06
2018-06-27T05:07:53.350Z,21.8
2018-06-27T05:08:19.571Z,21.58
2018-06-27T05:08:45.817Z,21.43
2018-06-27T05:09:12.104Z,21.48
2018-06-27T05:09:38.459Z,21.58
2018-06-27T05:10:05.164Z,21.67
2018-06-27T05:10:31.398Z,21.96
2018-06-27T05:10:57.502Z,22.11
2018-06-27T05:11:23.671Z,22.22
2018-06-27T05:11:49.815Z,22.38
2018-06-27T05:12:15.976Z,22.44
2018-06-27T05:12:42.140Z,22.51
2018-06-27T05:13:08.274Z,22.63
2018-06-27T05:13:34.447Z,22.68
2018-06-27T05:14:00.584Z,22.65
2018-06-27T05:14:26.729Z,22.55
2018-06-27T05:14:52.894Z,22.39
2018-06-27T05:15:19.062Z,22.14
2018-06-27T05:15:45.253Z,22.08
2018-06-27T05:16:11.397Z,21.96
2018-06-27T05:16:37.543Z,21.69
2018-06-27T05:17:03.678Z,21.62
2018-06-27T05:17:29.838Z,21.64
2018-06-27T05:17:56.014Z,21.61
2018-06-27T05:18:22.212Z,21.52
2018-06-27T05:18:48.324Z,21.6
2018-06-27T05:19:14.457Z,21.48
2018-06-27T05:19:40.601Z,21.5
2018-06-27T05:20:06.766Z,21.46
2018-06-27T05:20:32.908Z,21.42
2018-06-27T05:20:59.048Z,21.4
2018-06-27T05:21:25.189Z,21.29
2018-06-27T05:21:51.381Z,21.33
2018-06-27T05:22:17.507Z,21.32
2018-06-27T05:22:43.645Z,21.35
2018-06-27T05:23:09.783Z,21.35
2018-06-27T05:23:35.925Z,21.21
2018-06-27T05:24:02.067Z,21.03
2018-06-27T05:24:28.209Z,20.85
2018-06-27T05:24:54.344Z,20.72
2018-06-27T05:25:20.510Z,20.52
2018-06-27T05:25:46.700Z,20.44
2018-06-27T05:26:12.846Z,20.29
2018-06-27T05:26:38.987Z,20.34
2018-06-27T05:27:05.174Z,20.18
2018-06-27T05:27:31.344Z,19.92
2018-06-27T05:27:57.464Z,19.95
2018-06-27T05:28:23.626Z,19.88
2018-06-27T05:28:49.769Z,19.92
2018-06-27T05:29:15.908Z,19.92
2018-06-27T05:29:42.076Z,19.91
2018-06-27T05:30:08.238Z,19.92
2018-06-27T05:30:34.380Z,19.91
2018-06-27T05:31:00.518Z,19.81
2018-06-27T05:31:26.654Z,19.86
2018-06-27T05:31:52.824Z,19.82
2018-06-27T05:32:18.963Z,19.81
2018-06-27T05:32:45.105Z,19.79
2018-06-27T05:33:11.268Z,19.84
2018-06-27T05:33:37.404Z,19.82
2018-06-27T05:34:03.618Z,19.64
2018-06-27T05:34:29.679Z,19.62
2018-06-27T05:34:55.874Z,19.63
2018-06-27T05:35:21.956Z,19.48
2018-06-27T05:35:48.099Z,19.34
2018-06-27T05:36:14.258Z,19.31
2018-06-27T05:36:40.396Z,19.22
2018-06-27T05:37:06.563Z,19.08
2018-06-27T05:37:32.721Z,19
2018-06-27T05:37:58.861Z,18.88
2018-06-27T05:38:25.003Z,18.86